createdAt,value
2018-06-09T00:00:15.290Z,22.77
2018-06-09T00:02:46.822Z,21.83
2018-06-09T00:05:16.639Z,23.10
2018-06-09T00:07:46.220Z,22.20
2018-06-09T00:10:14.706Z,19.30
2018-06-09T00:12:43.142Z,24.03
2018-06-09T00:15:11.586Z,24.63
2018-06-09T00:17:40.075Z,24.70
2018-06-09T00:20:08.507Z,21.33
2018-06-09T00:22:36.934Z,20.10
2018-06-09T00:25:05.394Z,21.60
2018-06-09T00:27:33.831Z,19.73
2018-06-09T00:30:02.266Z,18.43
2018-06-09T00:32:30.679Z,20.13
2018-06-09T00:34:59.133Z,19.40
2018-06-09T00:37:27.574Z,18.87
2018-06-09T00:39:56.007Z,18.03
2018-06-09T00:42:24.460Z,17.97
2018-06-09T00:44:52.896Z,18.47
2018-06-09T00:47:21.346Z,18.23
2018-06-09T00:49:49.787Z,20.07
2018-06-09T00:52:18.218Z,17.57
2018-06-09T00:54:46.345Z,16.60
2018-06-09T00:57:14.767Z,19.23
2018-06-09T00:59:43.194Z,16.80
2018-06-09T01:02:25.521Z,17.70
2018-06-09T01:05:05.262Z,19.40
2018-06-09T01:07:33.714Z,22.50
2018-06-09T01:10:02.141Z,19.53
2018-06-09T01:12:31.559Z,18.73
2018-06-09T01:14:59.987Z,21.23
2018-06-09T01:17:28.442Z,20.97
2018-06-09T01:19:56.961Z,20.13
2018-06-09T01:22:25.424Z,18.73
2018-06-09T01:24:53.851Z,17.37
2018-06-09T01:27:22.274Z,22.30
2018-06-09T01:29:50.724Z,19.90
2018-06-09T01:32:19.174Z,20.80
2018-06-09T01:34:47.611Z,18.40
2018-06-09T01:37:16.030Z,16.97
2018-06-09T01:39:44.509Z,16.60
2018-06-09T01:42:12.988Z,17.07
2018-06-09T01:44:41.421Z,20.67
2018-06-09T01:47:09.553Z,19.50
2018-06-09T01:49:37.978Z,23.27
2018-06-09T01:52:06.413Z,15.90
2018-06-09T01:54:34.833Z,18.07
2018-06-09T01:57:03.258Z,15.70
2018-06-09T01:59:31.737Z,16.87
2018-06-09T02:02:00.182Z,18.00
2018-06-09T02:04:28.637Z,15.50
2018-06-09T02:06:57.093Z,17.30
2018-06-09T02:09:25.550Z,15.40
2018-06-09T02:11:54.011Z,15.77
2018-06-09T02:14:22.511Z,19.40
2018-06-09T02:16:50.926Z,17.53
2018-06-09T02:19:19.347Z,16.67
2018-06-09T02:21:47.802Z,18.47
2018-06-09T02:24:16.231Z,16.70
2018-06-09T02:26:44.658Z,19.50
2018-06-09T02:29:13.094Z,16.17
2018-06-09T02:31:41.543Z,15.70
2018-06-09T02:34:09.979Z,14.67
2018-06-09T02:36:38.394Z,15.43
2018-06-09T02:39:08.078Z,17.77
2018-06-09T02:41:36.538Z,15.57
2018-06-09T02:44:05.522Z,17.23
2018-06-09T02:46:33.939Z,14.87
2018-06-09T02:49:02.395Z,17.30
2018-06-09T02:51:30.850Z,16.37
2018-06-09T02:53:59.288Z,17.17
2018-06-09T02:56:28.735Z,18.60
2018-06-09T02:58:57.281Z,14.60
2018-06-09T03:01:25.730Z,16.10
2018-06-09T03:03:54.171Z,17.87
2018-06-09T03:06:22.615Z,16.63
2018-06-09T03:08:51.098Z,21.00
2018-06-09T03:11:19.534Z,16.10
2018-06-09T03:13:47.974Z,15.13
2018-06-09T03:16:16.768Z,15.00
2018-06-09T03:18:45.267Z,15.73
2018-06-09T03:21:13.699Z,17.67
2018-06-09T03:23:42.124Z,16.80
2018-06-09T03:26:10.567Z,17.83
2018-06-09T03:28:39.006Z,19.30
2018-06-09T03:31:07.450Z,15.90
2018-06-09T03:33:35.893Z,19.77
2018-06-09T03:36:04.857Z,18.63
2018-06-09T03:38:33.333Z,20.17
2018-06-09T03:41:02.379Z,18.73
2018-06-09T03:43:30.851Z,19.97
2018-06-09T03:45:59.271Z,18.03
2018-06-09T03:48:27.714Z,18.53
2018-06-09T03:50:56.148Z,19.33
2018-06-09T03:53:24.578Z,20.73
2018-06-09T03:55:53.019Z,19.27
2018-06-09T03:58:21.501Z,17.30
2018-06-09T04:00:49.942Z,19.60
2018-06-09T04:03:18.357Z,16.77
2018-06-09T04:05:46.786Z,17.77
2018-06-09T04:08:15.222Z,18.03
2018-06-09T04:10:43.674Z,16.57
2018-06-09T04:13:12.118Z,19.07
2018-06-09T04:15:40.551Z,16.93
2018-06-09T04:18:08.982Z,17.83
2018-06-09T04:20:38.258Z,17.53
2018-06-09T04:23:06.699Z,15.83
2018-06-09T04:25:35.146Z,18.83
2018-06-09T04:28:03.662Z,17.27
2018-06-09T04:30:32.168Z,15.30
2018-06-09T04:33:00.628Z,17.20
2018-06-09T04:35:29.053Z,15.93
2018-06-09T04:37:57.564Z,15.70
2018-06-09T04:40:26.017Z,16.20
2018-06-09T04:42:54.498Z,17.33
2018-06-09T04:45:23.497Z,17.37
2018-06-09T04:47:52.037Z,19.20
2018-06-09T04:50:20.482Z,17.47
2018-06-09T04:52:48.926Z,14.43
2018-06-09T04:55:17.355Z,14.73
2018-06-09T04:57:45.809Z,15.93
2018-06-09T05:00:14.260Z,17.43
2018-06-09T05:02:42.778Z,15.70
2018-06-09T05:05:11.207Z,16.03
2018-06-09T05:07:39.631Z,16.87
2018-06-09T05:10:08.074Z,15.03
2018-06-09T05:12:36.518Z,13.77
2018-06-09T05:15:05.460Z,17.00
2018-06-09T05:17:33.917Z,14.87
2018-06-09T05:20:02.387Z,20.17
2018-06-09T05:22:30.815Z,15.60
2018-06-09T05:24:59.266Z,17.07
2018-06-09T05:27:27.694Z,14.30
2018-06-09T05:29:56.140Z,15.60
2018-06-09T05:32:24.570Z,14.47
2018-06-09T05:34:53.000Z,14.40
2018-06-09T05:37:21.467Z,13.97
2018-06-09T05:39:49.931Z,14.40
2018-06-09T05:42:18.378Z,15.37
2018-06-09T05:44:46.804Z,14.87
2018-06-09T05:47:15.283Z,14.53
2018-06-09T05:49:44.066Z,14.00
2018-06-09T05:52:12.511Z,18.23
2018-06-09T05:54:40.981Z,14.33
2018-06-09T05:57:09.468Z,15.40
2018-06-09T05:59:37.921Z,16.53
2018-06-09T06:02:07.009Z,13.13
2018-06-09T06:04:35.498Z,14.47
2018-06-09T06:07:03.942Z,14.13
2018-06-09T06:09:32.395Z,14.60
2018-06-09T06:12:00.831Z,14.20
2018-06-09T06:14:29.314Z,16.20
2018-06-09T06:16:57.791Z,15.17
2018-06-09T06:19:26.237Z,16.37
2018-06-09T06:21:54.675Z,14.00
2018-06-09T06:24:23.109Z,14.33
2018-06-09T06:26:51.547Z,13.70
2018-06-09T06:29:19.974Z,17.07
2018-06-09T06:31:48.149Z,15.33
2018-06-09T06:34:16.595Z,14.20
2018-06-09T06:36:45.023Z,14.37
2018-06-09T06:39:13.462Z,15.23
2018-06-09T06:41:41.899Z,14.53
2018-06-09T06:44:10.369Z,15.17
2018-06-09T06:46:38.875Z,14.73
2018-06-09T06:49:07.358Z,15.90
2018-06-09T06:51:35.806Z,15.10
2018-06-09T06:54:03.936Z,14.73
2018-06-09T06:56:32.418Z,18.27
2018-06-09T06:59:00.869Z,15.13
2018-06-09T07:01:29.332Z,17.17
2018-06-09T07:03:57.771Z,16.63
2018-06-09T07:06:26.246Z,16.50
2018-06-09T07:08:54.690Z,17.70
2018-06-09T07:11:23.215Z,14.30
2018-06-09T07:13:51.647Z,13.37
2018-06-09T07:16:20.121Z,14.23
2018-06-09T07:18:48.562Z,14.13
2018-06-09T07:21:17.007Z,13.45
2018-06-09T07:23:45.471Z,12.65
2018-06-09T07:26:13.931Z,13.18
2018-06-09T07:28:42.477Z,11.25
2018-06-09T07:31:10.904Z,13.75
2018-06-09T07:33:39.386Z,13.15
2018-06-09T07:36:07.855Z,13.30
2018-06-09T07:38:36.315Z,12.98
2018-06-09T07:41:04.798Z,14.20
2018-06-09T07:43:33.314Z,14.87
2018-06-09T07:46:01.828Z,13.25
2018-06-09T07:48:30.290Z,13.68
2018-06-09T07:51:00.292Z,12.75
2018-06-09T07:53:28.825Z,12.20
2018-06-09T07:55:57.294Z,12.75
2018-06-09T07:58:25.794Z,14.00
2018-06-09T08:00:54.282Z,13.03
2018-06-09T08:03:22.823Z,13.80
2018-06-09T08:05:51.366Z,13.38
2018-06-09T08:08:19.818Z,13.58
2018-06-09T08:10:48.283Z,14.00
2018-06-09T08:13:16.720Z,14.33
2018-06-09T08:15:45.150Z,13.30
2018-06-09T08:18:13.838Z,12.78
2018-06-09T08:20:42.271Z,19.87
2018-06-09T08:23:10.754Z,14.90
2018-06-09T08:25:39.210Z,13.15
2018-06-09T08:28:07.678Z,13.30
2018-06-09T08:30:36.190Z,14.45
2018-06-09T08:33:04.711Z,13.00
2018-06-09T08:35:33.435Z,14.43
2018-06-09T08:38:01.887Z,13.83
2018-06-09T08:40:30.742Z,14.28
2018-06-09T08:42:59.296Z,14.78
2018-06-09T08:45:27.825Z,14.40
2018-06-09T08:47:56.318Z,14.30
2018-06-09T08:50:24.811Z,14.85
2018-06-09T08:52:53.272Z,15.15
2018-06-09T08:55:21.797Z,14.28
2018-06-09T08:57:50.265Z,15.48
2018-06-09T09:00:20.239Z,17.50
2018-06-09T09:02:50.460Z,15.93
2018-06-09T09:05:19.000Z,16.23
2018-06-09T09:07:48.042Z,16.20
2018-06-09T09:10:17.417Z,16.02
2018-06-09T09:12:47.485Z,15.90
2018-06-09T09:15:17.914Z,16.10
2018-06-09T09:17:47.091Z,15.93
2018-06-09T09:20:15.918Z,15.98
2018-06-09T09:22:45.398Z,16.27
2018-06-09T09:25:14.459Z,17.37
2018-06-09T09:27:43.295Z,20.43
2018-06-09T09:30:11.786Z,17.42
2018-06-09T09:32:40.302Z,16.42
2018-06-09T09:35:08.770Z,17.27
2018-06-09T09:37:37.226Z,16.30
2018-06-09T09:40:05.751Z,20.25
2018-06-09T09:42:34.506Z,15.98
2018-06-09T09:45:02.959Z,17.02
2018-06-09T09:47:31.988Z,17.75
2018-06-09T09:50:00.658Z,17.23
2018-06-09T09:52:29.821Z,17.85
2018-06-09T09:54:58.294Z,18.25
2018-06-09T09:57:26.812Z,17.37
2018-06-09T09:59:55.261Z,17.85
2018-06-09T10:02:24.753Z,16.95
2018-06-09T10:04:53.211Z,17.95
2018-06-09T10:07:21.714Z,17.75
2018-06-09T10:09:50.194Z,18.15
2018-06-09T10:12:18.661Z,17.37
2018-06-09T10:14:47.099Z,17.82
2018-06-09T10:17:16.109Z,20.45
2018-06-09T10:19:51.854Z,18.67
2018-06-09T10:22:20.022Z,18.67
2018-06-09T10:24:49.087Z,18.30
2018-06-09T10:27:19.110Z,19.52
2018-06-09T10:29:48.018Z,19.57
2018-06-09T10:32:16.510Z,20.23
2018-06-09T10:34:45.597Z,23.12
2018-06-09T10:37:14.189Z,18.77
2018-06-09T10:39:42.647Z,21.23
2018-06-09T10:42:11.096Z,20.90
2018-06-09T10:44:39.611Z,19.62
2018-06-09T10:47:08.058Z,21.30
2018-06-09T10:49:36.553Z,19.37
2018-06-09T10:52:05.089Z,20.02
2018-06-09T10:54:33.604Z,22.27
2018-06-09T10:57:03.045Z,22.02
2018-06-09T10:59:32.742Z,20.82
2018-06-09T11:02:02.778Z,21.17
2018-06-09T11:04:31.279Z,20.52
2018-06-09T11:06:59.888Z,20.40
2018-06-09T11:09:28.451Z,21.48
2018-06-09T11:11:56.901Z,21.80
2018-06-09T11:14:25.428Z,22.58
2018-06-09T11:16:53.925Z,21.77
2018-06-09T11:19:22.538Z,22.90
2018-06-09T11:21:51.467Z,22.85
2018-06-09T11:24:19.955Z,24.05
2018-06-09T11:26:48.542Z,23.98
2018-06-09T11:29:17.031Z,24.15
2018-06-09T11:31:45.508Z,22.13
2018-06-09T11:34:13.986Z,24.90
2018-06-09T11:36:42.454Z,23.77
2018-06-09T11:39:10.899Z,23.75
2018-06-09T11:41:39.351Z,24.12
2018-06-09T11:44:07.975Z,24.12
2018-06-09T11:46:36.403Z,24.77
2018-06-09T11:49:04.865Z,24.20
2018-06-09T11:51:33.367Z,23.60
2018-06-09T11:54:01.816Z,22.42
2018-06-09T11:56:30.275Z,27.95
2018-06-09T11:58:58.719Z,25.60
2018-06-09T12:01:27.252Z,24.65
2018-06-09T12:03:55.746Z,24.87
2018-06-09T12:06:24.195Z,27.35
2018-06-09T12:08:52.639Z,27.22
2018-06-09T12:11:21.184Z,26.33
2018-06-09T12:13:49.626Z,25.52
2018-06-09T12:16:18.139Z,23.40
2018-06-09T12:18:46.672Z,28.05
2018-06-09T12:21:15.140Z,27.20
2018-06-09T12:23:43.599Z,27.62
2018-06-09T12:26:12.191Z,28.42
2018-06-09T12:28:40.666Z,27.48
2018-06-09T12:31:09.146Z,25.37
2018-06-09T12:33:37.582Z,26.02
2018-06-09T12:36:06.058Z,25.95
2018-06-09T12:38:34.527Z,23.77
2018-06-09T12:41:03.054Z,28.70
2018-06-09T12:43:32.246Z,27.70
2018-06-09T12:46:00.842Z,29.03
2018-06-09T12:48:29.384Z,27.82
2018-06-09T12:50:57.829Z,27.32
2018-06-09T12:53:26.318Z,28.13
2018-06-09T12:55:54.767Z,26.07
2018-06-09T12:58:23.238Z,25.60
2018-06-09T13:00:51.674Z,24.75
2018-06-09T13:03:20.128Z,24.27
2018-06-09T13:05:48.629Z,24.02
2018-06-09T13:08:17.089Z,28.02
2018-06-09T13:10:46.812Z,25.57
2018-06-09T13:13:15.336Z,24.90
2018-06-09T13:15:43.793Z,24.45
2018-06-09T13:18:12.414Z,28.42
2018-06-09T13:20:40.903Z,26.50
2018-06-09T13:23:09.423Z,23.83
2018-06-09T13:25:37.878Z,25.10
2018-06-09T13:28:06.506Z,28.43
2018-06-09T13:30:34.963Z,26.12
2018-06-09T13:33:03.758Z,29.05
2018-06-09T13:35:32.199Z,27.50
2018-06-09T13:38:00.351Z,26.77
2018-06-09T13:40:28.818Z,27.83
2018-06-09T13:42:57.295Z,28.07
2018-06-09T13:45:25.767Z,25.70
2018-06-09T13:47:54.240Z,22.67
2018-06-09T13:50:22.783Z,22.87
2018-06-09T13:52:51.226Z,27.97
2018-06-09T13:55:19.674Z,27.00
2018-06-09T13:57:48.105Z,23.87
2018-06-09T14:00:16.539Z,24.80
2018-06-09T14:02:44.994Z,24.60
2018-06-09T14:05:13.455Z,24.60
2018-06-09T14:07:41.898Z,24.25
2018-06-09T14:10:10.397Z,25.07
2018-06-09T14:12:38.851Z,22.03
2018-06-09T14:15:07.345Z,25.88
2018-06-09T14:17:35.773Z,25.48
2018-06-09T14:20:04.528Z,26.80
2018-06-09T14:22:33.018Z,24.45
2018-06-09T14:25:01.483Z,25.60
2018-06-09T14:27:29.934Z,24.70
2018-06-09T14:29:58.519Z,25.57
2018-06-09T14:32:27.939Z,25.33
2018-06-09T14:34:56.415Z,27.63
2018-06-09T14:37:24.922Z,24.57
2018-06-09T14:39:53.392Z,24.77
2018-06-09T14:42:21.900Z,23.77
2018-06-09T14:44:50.424Z,25.63
2018-06-09T14:47:19.782Z,24.23
2018-06-09T14:49:48.274Z,25.43
2018-06-09T14:52:16.719Z,23.93
2018-06-09T14:54:45.179Z,23.47
2018-06-09T14:57:13.353Z,24.73
2018-06-09T14:59:41.819Z,22.73
2018-06-09T15:02:10.298Z,22.13
2018-06-09T15:04:38.760Z,22.87
2018-06-09T15:07:07.208Z,25.77
2018-06-09T15:09:35.655Z,25.63
2018-06-09T15:12:04.107Z,24.83
2018-06-09T15:14:32.556Z,22.53
2018-06-09T15:17:01.066Z,23.30
2018-06-09T15:19:29.571Z,24.43
2018-06-09T15:21:58.012Z,21.97
2018-06-09T15:24:26.464Z,22.27
2018-06-09T15:26:54.660Z,22.73
2018-06-09T15:29:23.111Z,22.87
2018-06-09T15:31:51.606Z,22.40
2018-06-09T15:34:20.063Z,24.67
2018-06-09T15:36:48.555Z,23.83
2018-06-09T15:39:17.003Z,23.17
2018-06-09T15:41:45.512Z,21.70
2018-06-09T15:44:13.960Z,22.13
2018-06-09T15:46:42.560Z,24.20
2018-06-09T15:49:11.051Z,22.00
2018-06-09T15:51:39.606Z,22.27
2018-06-09T15:54:08.045Z,24.63
2018-06-09T15:56:36.555Z,23.90
2018-06-09T15:59:05.024Z,23.92
2018-06-09T16:01:33.554Z,20.73
2018-06-09T16:04:02.203Z,20.37
2018-06-09T16:06:30.698Z,22.33
2018-06-09T16:08:59.248Z,22.33
2018-06-09T16:11:27.695Z,24.03
2018-06-09T16:13:56.139Z,22.07
2018-06-09T16:16:24.611Z,21.97
2018-06-09T16:18:53.124Z,22.50
2018-06-09T16:21:21.576Z,19.87
2018-06-09T16:23:50.086Z,21.00
2018-06-09T16:26:18.535Z,21.60
2018-06-09T16:28:47.015Z,21.93
2018-06-09T16:31:15.501Z,21.67
2018-06-09T16:33:43.948Z,21.83
2018-06-09T16:36:12.403Z,23.20
2018-06-09T16:38:40.879Z,21.03
2018-06-09T16:41:09.342Z,21.77
2018-06-09T16:43:37.865Z,23.80
2018-06-09T16:46:06.325Z,22.07
2018-06-09T16:48:34.791Z,21.60
2018-06-09T16:51:03.294Z,21.47
2018-06-09T16:53:31.800Z,22.13
2018-06-09T16:56:00.249Z,20.67
2018-06-09T16:58:28.708Z,21.37
2018-06-09T17:00:57.214Z,19.60
2018-06-09T17:03:25.711Z,20.00
2018-06-09T17:05:54.170Z,22.87
2018-06-09T17:08:22.885Z,22.00
2018-06-09T17:10:51.404Z,22.40
2018-06-09T17:13:19.807Z,22.77
2018-06-09T17:15:48.294Z,24.40
2018-06-09T17:18:16.761Z,22.47
2018-06-09T17:20:45.216Z,22.30
2018-06-09T17:23:13.694Z,21.37
2018-06-09T17:25:42.143Z,24.03
2018-06-09T17:28:10.772Z,24.30
2018-06-09T17:30:39.198Z,24.30
2018-06-09T17:33:07.670Z,22.20
2018-06-09T17:35:36.170Z,22.90
2018-06-09T17:38:04.673Z,22.77
2018-06-09T17:40:33.139Z,22.50
2018-06-09T17:43:01.650Z,23.23
2018-06-09T17:45:30.130Z,22.63
2018-06-09T17:47:58.587Z,23.77
2018-06-09T17:50:27.102Z,23.37
2018-06-09T17:52:55.549Z,23.10
2018-06-09T17:55:24.011Z,23.37
2018-06-09T17:57:52.455Z,24.13
2018-06-09T18:00:20.927Z,23.13
2018-06-09T18:02:49.378Z,22.20
2018-06-09T18:05:17.842Z,23.77
2018-06-09T18:07:46.303Z,23.23
2018-06-09T18:10:14.763Z,28.60
2018-06-09T18:12:43.258Z,21.53
2018-06-09T18:15:11.389Z,23.00
2018-06-09T18:17:39.855Z,23.57
2018-06-09T18:20:08.739Z,23.53
2018-06-09T18:22:37.191Z,24.83
2018-06-09T18:25:05.988Z,24.30
2018-06-09T18:27:34.462Z,23.27
2018-06-09T18:30:02.915Z,24.83
2018-06-09T18:32:31.377Z,24.10
2018-06-09T18:34:59.831Z,24.27
2018-06-09T18:37:28.293Z,25.57
2018-06-09T18:39:56.735Z,24.50
2018-06-09T18:42:25.195Z,24.70
2018-06-09T18:44:53.658Z,24.20
2018-06-09T18:47:22.122Z,23.20
2018-06-09T18:49:50.582Z,22.17
2018-06-09T18:52:19.059Z,25.50
2018-06-09T18:54:47.506Z,23.83
2018-06-09T18:57:15.998Z,24.17
2018-06-09T18:59:44.450Z,23.87
2018-06-09T19:02:12.923Z,24.07
2018-06-09T19:04:41.367Z,23.73
2018-06-09T19:07:09.831Z,23.57
2018-06-09T19:09:38.258Z,23.13
2018-06-09T19:12:06.728Z,24.73
2018-06-09T19:14:35.174Z,24.03
2018-06-09T19:17:03.635Z,25.47
2018-06-09T19:19:32.082Z,25.87
2018-06-09T19:22:00.558Z,25.70
2018-06-09T19:24:29.006Z,25.73
2018-06-09T19:26:57.460Z,24.43
2018-06-09T19:29:25.948Z,24.27
2018-06-09T19:31:54.398Z,24.27
2018-06-09T19:34:22.934Z,24.23
2018-06-09T19:36:51.667Z,24.73
2018-06-09T19:39:20.112Z,24.13
2018-06-09T19:41:48.563Z,24.10
2018-06-09T19:44:17.576Z,24.17
2018-06-09T19:46:46.073Z,23.47
2018-06-09T19:49:14.531Z,21.77
2018-06-09T19:51:42.970Z,21.77
2018-06-09T19:54:11.458Z,21.37
2018-06-09T19:56:39.955Z,21.53
2018-06-09T19:59:08.423Z,21.20
2018-06-09T20:01:36.875Z,14.20
2018-06-09T20:04:05.383Z,10.80
2018-06-09T20:06:33.834Z,11.40
2018-06-09T20:09:02.381Z,10.57
2018-06-09T20:11:31.103Z,10.57
2018-06-09T20:13:59.570Z,12.07
2018-06-09T20:16:28.030Z,11.57
2018-06-09T20:18:56.547Z,12.10
2018-06-09T20:21:24.997Z,14.93
2018-06-09T20:23:53.441Z,13.80
2018-06-09T20:26:21.943Z,12.40
2018-06-09T20:28:50.398Z,18.00
2018-06-09T20:31:18.860Z,19.67
2018-06-09T20:33:47.311Z,28.70
2018-06-09T20:36:15.782Z,14.40
2018-06-09T20:38:44.330Z,12.63
2018-06-09T20:41:12.802Z,10.70
2018-06-09T20:43:41.239Z,10.20
2018-06-09T20:46:09.745Z,9.00
2018-06-09T20:48:38.234Z,10.30
2018-06-09T20:51:06.670Z,9.00
2018-06-09T20:53:35.146Z,9.23
2018-06-09T20:56:04.070Z,8.93
2018-06-09T20:58:41.919Z,9.80
2018-06-09T21:01:11.174Z,11.63
2018-06-09T21:03:39.643Z,12.50
2018-06-09T21:06:08.161Z,11.40
2018-06-09T21:08:36.633Z,11.50
2018-06-09T21:11:05.119Z,16.47
2018-06-09T21:13:33.583Z,15.03
2018-06-09T21:16:02.070Z,12.27
2018-06-09T21:18:30.523Z,15.93
2018-06-09T21:20:58.997Z,14.20
2018-06-09T21:23:27.450Z,11.20
2018-06-09T21:25:55.940Z,11.07
2018-06-09T21:28:25.757Z,11.83
2018-06-09T21:30:59.561Z,11.10
2018-06-09T21:33:44.574Z,13.50
2018-06-09T21:36:14.762Z,14.97
2018-06-09T21:38:48.563Z,14.77
2018-06-09T21:41:27.256Z,17.50
2018-06-09T21:43:59.939Z,17.60
2018-06-09T21:46:34.338Z,17.13
2018-06-09T21:49:02.778Z,17.87
2018-06-09T21:51:31.935Z,20.00
2018-06-09T21:54:00.386Z,18.30
2018-06-09T21:56:28.867Z,19.43
2018-06-09T21:58:57.321Z,22.47
2018-06-09T22:01:25.767Z,21.20
2018-06-09T22:03:54.214Z,20.50
2018-06-09T22:06:22.675Z,19.53
2018-06-09T22:08:51.111Z,20.87
2018-06-09T22:11:21.958Z,20.03
2018-06-09T22:13:50.462Z,23.00
2018-06-09T22:16:18.927Z,22.93
2018-06-09T22:18:47.398Z,24.23
2018-06-09T22:21:15.857Z,20.47
2018-06-09T22:23:44.293Z,20.03
2018-06-09T22:26:16.792Z,22.10
2018-06-09T22:28:45.239Z,23.23
2018-06-09T22:31:13.710Z,22.67
2018-06-09T22:33:42.185Z,23.13
2018-06-09T22:36:10.627Z,22.50
2018-06-09T22:38:39.071Z,22.07
2018-06-09T22:41:07.521Z,22.80
2018-06-09T22:43:35.962Z,22.90
2018-06-09T22:46:04.436Z,23.90
2018-06-09T22:48:32.886Z,20.17
2018-06-09T22:51:01.017Z,22.53
2018-06-09T22:53:29.458Z,22.57
2018-06-09T22:55:57.899Z,23.00
2018-06-09T22:58:26.345Z,21.63
2018-06-09T23:00:57.008Z,22.93
2018-06-09T23:03:25.667Z,23.13
2018-06-09T23:05:54.106Z,23.43
2018-06-09T23:08:22.594Z,21.83
2018-06-09T23:10:51.039Z,23.47
2018-06-09T23:13:19.482Z,21.57
2018-06-09T23:15:47.924Z,22.97
2018-06-09T23:18:16.367Z,22.57
2018-06-09T23:20:44.821Z,21.30
2018-06-09T23:23:13.272Z,19.83
2018-06-09T23:25:41.714Z,20.00
2018-06-09T23:28:10.198Z,21.77
2018-06-09T23:30:38.720Z,19.40
2018-06-09T23:33:07.158Z,22.17
2018-06-09T23:35:35.625Z,19.77
2018-06-09T23:38:04.094Z,20.30
2018-06-09T23:40:32.546Z,21.17
2018-06-09T23:43:00.979Z,22.10
2018-06-09T23:45:29.444Z,21.23
2018-06-09T23:47:57.885Z,18.77
2018-06-09T23:50:26.315Z,20.03
2018-06-09T23:52:54.767Z,21.30
2018-06-09T23:55:23.218Z,19.77
2018-06-09T23:57:51.702Z,19.30
